Time;durP1;ratioP1;P1;durP2;ratioP2;P2;SDS_P1;SDS_P2;PMS_P1;PMS_P2;Temp;Humidity;BMP_temperature;BMP_pressure;BME280_temperature;BME280_humidity;BME280_pressure;Samples;Min_cycle;Max_cycle;Signal;HPM_P1;HPM_P2
2021/09/01 00:01:48;;;;;;;;;;;;;;;;;;4953600;28;19929;-90
2021/09/01 00:04:16;;;;;;;;;;;;;;;;;;4965827;28;19937;-89
2021/09/01 00:06:44;;;;;;;;;;;;;;;;;;4959859;28;19926;-89
2021/09/01 00:09:12;;;;;;;;;;;;;;;;;;4969670;28;19925;-92
2021/09/01 00:11:41;;;;;;;;;;;;;;;;;;4974480;28;19932;-91
2021/09/01 00:14:10;;;;;;;;;;;;;;;;;;4952281;28;20341;-89
2021/09/01 00:16:38;;;;;;;;;;;;;;;;;;4954571;28;19929;-88
2021/09/01 00:19:07;;;;;;;;;;;;;;;;;;4956777;28;19934;-90
2021/09/01 00:21:37;;;;;;;;;;;;;;;;;;4960791;28;19926;-92
2021/09/01 00:24:06;;;;;;;;;;;;;;;;;;4974810;28;19933;-92
2021/09/01 00:26:34;;;;;;;;;;;;;;;;;;4946824;28;19933;-92
2021/09/01 00:29:03;;;;;;;;;;;;;;;;;;4965156;28;19951;-93
2021/09/01 00:31:33;;;;;;;;;;;;;;;;;;4956094;28;19926;-92
2021/09/01 00:34:02;;;;;;;;;;;;;;;;;;4955603;28;19926;-91
2021/09/01 00:36:31;;;;;;;;;;;;;;;;;;4954690;28;19925;-90
2021/09/01 00:38:59;;;;;;;;;;;;;;;;;;4956231;28;19926;-91
2021/09/01 00:41:28;;;;;;;;;;;;;;;;;;4957723;28;19926;-90
2021/09/01 00:43:57;;;;;;;;;;;;;;;;;;4957754;28;19930;-89
2021/09/01 00:46:26;;;;;;;;;;;;;;;;;;4961825;28;19925;-91
2021/09/01 00:48:55;;;;;;;;;;;;;;;;;;4959484;28;20394;-89
2021/09/01 00:51:23;;;;;;;;;;;;;;;;;;4952554;28;20330;-89
2021/09/01 00:53:51;;;;;;;;;;;;;;;;;;4953217;28;19948;-90
2021/09/01 00:56:20;;;;;;;;;;;;;;;;;;4950739;28;20313;-91
2021/09/01 00:58:49;;;;;;;;;;;;;;;;;;4951637;28;19927;-90
2021/09/01 01:01:17;;;;;;;;;;;;;;;;;;4962283;28;19926;-92
2021/09/01 01:03:46;;;;;;;;;;;;;;;;;;4959979;28;19925;-90
2021/09/01 01:06:16;;;;;;;;;;;;;;;;;;4943567;28;19933;-90
2021/09/01 01:08:53;;;;;;;;;;;;;;;;;;4954953;28;19926;-90
2021/09/01 01:11:22;;;;;;;;;;;;;;;;;;4953794;28;19926;-89
2021/09/01 01:13:58;;;;;;;;;;;;;;;;;;4945832;28;20416;-89
2021/09/01 01:16:26;;;;;;;;;;;;;;;;;;4976099;28;19926;-89
2021/09/01 01:18:59;;;;;;;;;;;;;;;;;;4958770;28;19932;-89
2021/09/01 01:21:29;;;;;;;;;;;;;;;;;;4958281;28;19949;-91
2021/09/01 01:23:58;;;;;;;;;;;;;;;;;;4942553;28;19926;-90
2021/09/01 01:26:28;;;;;;;;;;;;;;;;;;4971404;28;19926;-90
2021/09/01 01:28:57;;;;;;;;;;;;;;;;;;4962294;28;19930;-88
2021/09/01 01:31:25;;;;;;;;;;;;;;;;;;4944368;28;19933;-91
2021/09/01 01:33:53;;;;;;;;;;;;;;;;;;4958522;28;20318;-90
2021/09/01 01:36:22;;;;;;;;;;;;;;;;;;4949323;28;19927;-90
2021/09/01 01:38:50;;;;;;;;;;;;;;;;;;4961335;28;20389;-89
2021/09/01 01:41:18;;;;;;;;;;;;;;;;;;4960872;28;19933;-89
2021/09/01 01:43:48;;;;;;;;;;;;;;;;;;4943695;28;19933;-89
2021/09/01 01:46:16;;;;;;;;;;;;;;;;;;4958791;28;19929;-90
2021/09/01 01:48:44;;;;;;;;;;;;;;;;;;4968416;28;19925;-89
2021/09/01 01:51:12;;;;;;;;;;;;;;;;;;4948056;28;19926;-89
2021/09/01 01:53:40;;;;;;;;;;;;;;;;;;4952461;28;19930;-89
2021/09/01 01:56:08;;;;;;;;;;;;;;;;;;4960233;28;19937;-90
2021/09/01 01:58:37;;;;;;;;;;;;;;;;;;4964363;28;19925;-89
2021/09/01 02:01:06;;;;;;;;;;;;;;;;;;4973615;28;19930;-90
2021/09/01 02:03:34;;;;;;;;;;;;;;;;;;4997348;28;19932;-91
2021/09/01 02:06:02;;;;;;;;;;;;;;;;;;4981754;28;19932;-91
2021/09/01 02:08:30;;;;;;;;;;;;;;;;;;4962322;28;19932;-88
2021/09/01 02:10:59;;;;;;;;;;;;;;;;;;4956141;28;19925;-90
2021/09/01 02:13:27;;;;;;;;;;;;;;;;;;4947044;28;19933;-90
2021/09/01 02:15:55;;;;;;;;;;;;;;;;;;4960130;28;19926;-90
2021/09/01 02:18:25;;;;;;;;;;;;;;;;;;4962919;28;19926;-89
2021/09/01 02:20:53;;;;;;;;;;;;;;;;;;4951945;28;20416;-88
2021/09/01 02:23:21;;;;;;;;;;;;;;;;;;4960010;28;19930;-89
2021/09/01 02:25:49;;;;;;;;;;;;;;;;;;4982445;28;19929;-90
2021/09/01 02:28:17;;;;;;;;;;;;;;;;;;4958183;28;19927;-91
2021/09/01 02:30:45;;;;;;;;;;;;;;;;;;4975486;28;19933;-91
2021/09/01 02:33:13;;;;;;;;;;;;;;;;;;4957140;28;20314;-89
2021/09/01 02:35:43;;;;;;;;;;;;;;;;;;4957936;28;19953;-90
2021/09/01 02:38:11;;;;;;;;;;;;;;;;;;4956000;28;19930;-87
2021/09/01 02:40:39;;;;;;;;;;;;;;;;;;4973980;28;19977;-90
2021/09/01 02:43:07;;;;;;;;;;;;;;;;;;4961300;28;20283;-89
2021/09/01 02:45:35;;;;;;;;;;;;;;;;;;4959605;28;19926;-90
2021/09/01 02:48:05;;;;;;;;;;;;;;;;;;4949934;28;19926;-90
2021/09/01 02:50:33;;;;;;;;;;;;;;;;;;4961214;28;20382;-90
2021/09/01 02:53:03;;;;;;;;;;;;;;;;;;4954929;28;20333;-87
2021/09/01 02:55:31;;;;;;;;;;;;;;;;;;4956946;28;19926;-90
2021/09/01 02:57:59;;;;;;;;;;;;;;;;;;4955290;28;19932;-91
2021/09/01 03:00:27;;;;;;;;;;;;;;;;;;4956521;28;19926;-90
2021/09/01 03:02:55;;;;;;;;;;;;;;;;;;4974332;28;19926;-89
2021/09/01 03:05:24;;;;;;;;;;;;;;;;;;4956740;28;19937;-90
2021/09/01 03:07:52;;;;;;;;;;;;;;;;;;4971618;28;19929;-90
2021/09/01 03:10:22;;;;;;;;;;;;;;;;;;4953407;28;19926;-90
2021/09/01 03:12:50;;;;;;;;;;;;;;;;;;4967831;28;19932;-90
2021/09/01 03:15:18;;;;;;;;;;;;;;;;;;4959164;28;19926;-91
2021/09/01 03:17:46;;;;;;;;;;;;;;;;;;4957694;28;19925;-90
2021/09/01 03:20:14;;;;;;;;;;;;;;;;;;4957095;28;19926;-90
2021/09/01 03:22:43;;;;;;;;;;;;;;;;;;4974047;28;19937;-89
2021/09/01 03:25:12;;;;;;;;;;;;;;;;;;4955947;28;20410;-90
2021/09/01 03:27:41;;;;;;;;;;;;;;;;;;4959540;28;19926;-91
2021/09/01 03:30:10;;;;;;;;;;;;;;;;;;4960679;28;19936;-91
2021/09/01 03:32:38;;;;;;;;;;;;;;;;;;4969123;28;19933;-90
2021/09/01 03:35:07;;;;;;;;;;;;;;;;;;4948789;28;20325;-90
2021/09/01 03:37:35;;;;;;;;;;;;;;;;;;4974610;28;20412;-89
2021/09/01 03:40:04;;;;;;;;;;;;;;;;;;4975600;28;19926;-90
2021/09/01 03:42:32;;;;;;;;;;;;;;;;;;4954121;28;19926;-91
2021/09/01 03:45:01;;;;;;;;;;;;;;;;;;4974791;28;19941;-90
2021/09/01 03:47:30;;;;;;;;;;;;;;;;;;4955581;28;19926;-92
2021/09/01 03:49:58;;;;;;;;;;;;;;;;;;4956611;28;20305;-90
2021/09/01 03:52:26;;;;;;;;;;;;;;;;;;4945443;28;19927;-90
2021/09/01 03:54:54;;;;;;;;;;;;;;;;;;4950005;28;19930;-90
2021/09/01 03:57:24;;;;;;;;;;;;;;;;;;4943129;28;19934;-92
2021/09/01 03:59:52;;;;;;;;;;;;;;;;;;4955591;28;20310;-90
2021/09/01 04:02:21;;;;;;;;;;;;;;;;;;4955524;28;19926;-90
2021/09/01 04:04:49;;;;;;;;;;;;;;;;;;4955283;28;19933;-89
2021/09/01 04:07:18;;;;;;;;;;;;;;;;;;4955451;28;19933;-91
2021/09/01 04:09:46;;;;;;;;;;;;;;;;;;4958351;28;19925;-90
2021/09/01 04:12:14;;;;;;;;;;;;;;;;;;4945280;28;20314;-90
2021/09/01 04:14:42;;;;;;;;;;;;;;;;;;4980851;28;19926;-90
2021/09/01 04:17:10;;;;;;;;;;;;;;;;;;4954779;28;19929;-90
2021/09/01 04:19:40;;;;;;;;;;;;;;;;;;4958067;28;19926;-92
2021/09/01 04:22:08;;;;;;;;;;;;;;;;;;4993718;28;19926;-90
2021/09/01 04:24:36;;;;;;;;;;;;;;;;;;4952839;28;20394;-90
2021/09/01 04:27:04;;;;;;;;;;;;;;;;;;4976078;28;19936;-90
2021/09/01 04:29:32;;;;;;;;;;;;;;;;;;4959917;28;19926;-91
2021/09/01 04:32:00;;;;;;;;;;;;;;;;;;4958325;28;19949;-91
2021/09/01 04:34:30;;;;;;;;;;;;;;;;;;4951623;28;20422;-91
2021/09/01 04:36:59;;;;;;;;;;;;;;;;;;4958158;28;19926;-91
2021/09/01 04:39:27;;;;;;;;;;;;;;;;;;4957304;28;20413;-91
2021/09/01 04:41:55;;;;;;;;;;;;;;;;;;4961122;28;20305;-91
2021/09/01 04:44:23;;;;;;;;;;;;;;;;;;4972316;28;20131;-91
2021/09/01 04:46:52;;;;;;;;;;;;;;;;;;4956336;28;20006;-91
2021/09/01 04:49:20;;;;;;;;;;;;;;;;;;4961320;28;19933;-91
2021/09/01 04:51:48;;;;;;;;;;;;;;;;;;4957528;28;19933;-91
2021/09/01 04:54:21;;;;;;;;;;;;;;;;;;4953064;28;19927;-92
2021/09/01 04:56:49;;;;;;;;;;;;;;;;;;4961589;28;19933;-92
2021/09/01 04:59:17;;;;;;;;;;;;;;;;;;4958185;28;19927;-92
2021/09/01 05:01:46;;;;;;;;;;;;;;;;;;4975142;28;19933;-91
2021/09/01 05:04:15;;;;;;;;;;;;;;;;;;4970049;28;19926;-91
2021/09/01 05:06:43;;;;;;;;;;;;;;;;;;4968447;28;19926;-92
2021/09/01 05:09:11;;;;;;;;;;;;;;;;;;4953332;28;19927;-92
2021/09/01 05:11:41;;;;;;;;;;;;;;;;;;4948165;28;19930;-92
2021/09/01 05:14:09;;;;;;;;;;;;;;;;;;4959168;28;19926;-92
2021/09/01 05:16:37;;;;;;;;;;;;;;;;;;4960835;28;19933;-89
2021/09/01 05:19:09;;;;;;;;;;;;;;;;;;4966356;28;20314;-89
2021/09/01 05:21:40;;;;;;;;;;;;;;;;;;4972912;28;19933;-91
2021/09/01 05:24:08;;;;;;;;;;;;;;;;;;4959151;28;20004;-87
2021/09/01 05:26:36;;;;;;;;;;;;;;;;;;4947026;28;19933;-90
2021/09/01 05:29:06;;;;;;;;;;;;;;;;;;4979358;28;19937;-92
2021/09/01 05:31:38;;;;;;;;;;;;;;;;;;4988204;28;19933;-91
2021/09/01 05:34:06;;;;;;;;;;;;;;;;;;4961590;28;19933;-91
2021/09/01 05:36:35;;;;;;;;;;;;;;;;;;4961426;28;19937;-89
2021/09/01 05:39:03;;;;;;;;;;;;;;;;;;4987535;28;19925;-89
2021/09/01 05:41:31;;;;;;;;;;;;;;;;;;4976751;28;19926;-88
2021/09/01 05:43:59;;;;;;;;;;;;;;;;;;4960282;28;19926;-89
2021/09/01 05:46:29;;;;;;;;;;;;;;;;;;4958269;28;19933;-88
2021/09/01 05:49:02;;;;;;;;;;;;;;;;;;4941645;28;20310;-89
2021/09/01 05:51:30;;;;;;;;;;;;;;;;;;4951002;28;19926;-88
2021/09/01 05:53:58;;;;;;;;;;;;;;;;;;4968036;28;19933;-91
2021/09/01 05:56:29;;;;;;;;;;;;;;;;;;4952041;28;19926;-91
2021/09/01 05:58:58;;;;;;;;;;;;;;;;;;4965040;28;20419;-91
2021/09/01 06:01:27;;;;;;;;;;;;;;;;;;4951887;28;19926;-92
2021/09/01 06:03:58;;;;;;;;;;;;;;;;;;4962726;28;19933;-92
2021/09/01 06:06:27;;;;;;;;;;;;;;;;;;4954313;28;19933;-95
2021/09/01 06:08:58;;;;;;;;;;;;;;;;;;4942363;28;20390;-90
2021/09/01 06:11:26;;;;;;;;;;;;;;;;;;4942801;28;19934;-91
2021/09/01 06:13:55;;;;;;;;;;;;;;;;;;4941669;28;19930;-89
2021/09/01 06:16:23;;;;;;;;;;;;;;;;;;4961986;28;19933;-91
2021/09/01 06:18:51;;;;;;;;;;;;;;;;;;4967033;28;19926;-90
2021/09/01 06:21:23;;;;;;;;;;;;;;;;;;4960029;28;19920;-94
2021/09/01 06:23:55;;;;;;;;;;;;;;;;;;4965136;28;19930;-92
2021/09/01 06:26:23;;;;;;;;;;;;;;;;;;4975129;28;19926;-94
2021/09/01 06:28:51;;;;;;;;;;;;;;;;;;4968710;28;20550;-91
2021/09/01 06:31:20;;;;;;;;;;;;;;;;;;4952315;28;19926;-89
2021/09/01 06:33:48;;;;;;;;;;;;;;;;;;4967093;28;19926;-88
2021/09/01 06:36:16;;;;;;;;;;;;;;;;;;4954157;28;19930;-89
2021/09/01 06:38:45;;;;;;;;;;;;;;;;;;4958707;28;20150;-91
2021/09/01 06:41:14;;;;;;;;;;;;;;;;;;4972160;28;19926;-90
2021/09/01 06:43:42;;;;;;;;;;;;;;;;;;4942603;28;20085;-87
2021/09/01 06:46:10;;;;;;;;;;;;;;;;;;4976197;28;19930;-88
2021/09/01 06:48:38;;;;;;;;;;;;;;;;;;4975685;28;20294;-89
2021/09/01 06:51:06;;;;;;;;;;;;;;;;;;4956655;28;19929;-89
2021/09/01 06:53:34;;;;;;;;;;;;;;;;;;4948676;28;19926;-90
2021/09/01 06:56:04;;;;;;;;;;;;;;;;;;4955677;28;19930;-90
2021/09/01 06:58:47;;;;;;;;;;;;;;;;;;4950983;28;19930;-86
2021/09/01 07:01:15;;;;;;;;;;;;;;;;;;4953302;28;19926;-89
2021/09/01 07:03:44;;;;;;;;;;;;;;;;;;4964926;28;19934;-88
2021/09/01 07:06:12;;;;;;;;;;;;;;;;;;4955370;28;19933;-88
2021/09/01 07:08:40;;;;;;;;;;;;;;;;;;4956709;28;19933;-88
2021/09/01 07:11:10;;;;;;;;;;;;;;;;;;4942986;28;19926;-89
2021/09/01 07:13:38;;;;;;;;;;;;;;;;;;4970576;28;19926;-88
2021/09/01 07:16:07;;;;;;;;;;;;;;;;;;4969658;28;19930;-86
2021/09/01 07:18:35;;;;;;;;;;;;;;;;;;4956777;28;19927;-88
2021/09/01 07:21:03;;;;;;;;;;;;;;;;;;4967530;28;19930;-87
2021/09/01 07:23:31;;;;;;;;;;;;;;;;;;4950735;28;19926;-89
2021/09/01 07:25:59;;;;;;;;;;;;;;;;;;4966274;28;20390;-88
2021/09/01 07:28:29;;;;;;;;;;;;;;;;;;4953119;28;20322;-87
2021/09/01 07:30:57;;;;;;;;;;;;;;;;;;4950107;28;19937;-88
2021/09/01 07:33:25;;;;;;;;;;;;;;;;;;4943085;28;19930;-90
2021/09/01 07:35:57;;;;;;;;;;;;;;;;;;4975531;28;20302;-86
2021/09/01 07:38:25;;;;;;;;;;;;;;;;;;4961369;28;19980;-89
2021/09/01 07:40:53;;;;;;;;;;;;;;;;;;4947882;28;19926;-87
2021/09/01 07:43:26;;;;;;;;;;;;;;;;;;4952204;28;19926;-87
2021/09/01 07:45:55;;;;;;;;;;;;;;;;;;4964318;28;19926;-90
2021/09/01 07:48:23;;;;;;;;;;;;;;;;;;4956701;28;19925;-89
2021/09/01 07:50:52;;;;;;;;;;;;;;;;;;4971124;28;20283;-90
2021/09/01 07:53:20;;;;;;;;;;;;;;;;;;4967895;28;19933;-88
2021/09/01 07:55:48;;;;;;;;;;;;;;;;;;4972038;28;19949;-89
2021/09/01 07:58:17;;;;;;;;;;;;;;;;;;4954182;28;19926;-88
2021/09/01 08:00:45;;;;;;;;;;;;;;;;;;4953272;28;19925;-88
2021/09/01 08:03:14;;;;;;;;;;;;;;;;;;4956808;28;19948;-88
2021/09/01 09:15:14;;;;;;;;;;;;;;;;;;4860865;28;3803298;-91
2021/09/01 09:23:29;;;;;;;;;;;;;;;;;;4927783;29;19938;-90
2021/09/01 09:25:57;;;;;;;;;;;;;;;;;;4916118;29;20314;-87
2021/09/01 09:28:26;;;;;;;;;;;;;;;;;;4897759;29;19938;-89
2021/09/01 09:30:55;;;;;;;;;;;;;;;;;;4900981;29;19938;-90
2021/09/01 09:33:24;;;;;;;;;;;;;;;;;;4897801;29;19927;-88
2021/09/01 09:35:57;;;;;;;;;;;;;;;;;;4919419;29;19970;-90
2021/09/01 09:38:39;;;;;;;;;;;;;;;;;;4891514;29;20478;-86
2021/09/01 09:41:08;;;;;;;;;;;;;;;;;;4901049;29;19967;-89
2021/09/01 09:43:36;;;;;;;;;;;;;;;;;;4901299;29;19927;-87
2021/09/01 09:46:08;;;;;;;;;;;;;;;;;;4904464;29;19927;-87
2021/09/01 09:48:37;;;;;;;;;;;;;;;;;;4913222;28;19926;-88
2021/09/01 09:51:05;;;;;;;;;;;;;;;;;;4970834;28;19925;-90
2021/09/01 09:53:35;;;;;;;;;;;;;;;;;;4964482;28;19926;-88
2021/09/01 09:56:08;;;;;;;;;;;;;;;;;;4949696;28;19937;-89
2021/09/01 09:58:37;;;;;;;;;;;;;;;;;;4947535;28;19926;-90
2021/09/01 10:01:07;;;;;;;;;;;;;;;;;;4964710;28;19949;-88
2021/09/01 10:03:36;;;;;;;;;;;;;;;;;;4950878;28;19933;-88
2021/09/01 10:06:08;;;;;;;;;;;;;;;;;;4968323;28;19925;-88
2021/09/01 10:08:37;;;;;;;;;;;;;;;;;;4953024;28;19926;-89
2021/09/01 10:11:06;;;;;;;;;;;;;;;;;;4969379;28;19933;-88
2021/09/01 10:13:34;;;;;;;;;;;;;;;;;;4950190;28;20291;-87
2021/09/01 10:16:05;;;;;;;;;;;;;;;;;;4949964;28;19926;-88
2021/09/01 10:18:35;;;;;;;;;;;;;;;;;;4947031;28;19940;-87
2021/09/01 10:21:11;;;;;;;;;;;;;;;;;;4951615;28;20387;-87
2021/09/01 10:23:40;;;;;;;;;;;;;;;;;;4956812;28;20315;-87
2021/09/01 10:26:21;;;;;;;;;;;;;;;;;;4958093;28;19926;-87
2021/09/01 10:28:53;;;;;;;;;;;;;;;;;;4953667;28;19949;-87
2021/09/01 10:31:32;;;;;;;;;;;;;;;;;;4955104;28;19930;-87
2021/09/01 10:34:20;;;;;;;;;;;;;;;;;;4949472;28;19926;-85
2021/09/01 10:36:49;;;;;;;;;;;;;;;;;;4949116;28;19937;-87
2021/09/01 10:39:33;;;;;;;;;;;;;;;;;;4975757;28;20386;-86
2021/09/01 10:42:23;;;;;;;;;;;;;;;;;;4953731;28;19925;-85
2021/09/01 10:45:10;;;;;;;;;;;;;;;;;;4972035;28;19929;-85
2021/09/01 10:48:11;;;;;;;;;;;;;;;;;;4965469;28;19930;-86
2021/09/01 10:55:10;;;;;;;;;;;;;;;;;;4987268;28;19936;-87
2021/09/01 10:58:18;;;;;;;;;;;;;;;;;;4952809;28;19949;-88
2021/09/01 11:05:27;;;;;;;;;;;;;;;;;;4958271;28;19925;-90
2021/09/01 11:07:56;;;;;;;;;;;;;;;;;;4916145;29;20422;-89
2021/09/01 11:10:30;;;;;;;;;;;;;;;;;;4925794;29;19927;-90
2021/09/01 11:17:12;;;;;;;;;;;;;;;;;;4967814;23;19934;-85
2021/09/01 11:19:41;;;;;;;;;;;;;;;;;;4949037;28;19926;-86
2021/09/01 11:22:09;;;;;;;;;;;;;;;;;;4933920;28;19926;-85
2021/09/01 11:24:45;;;;;;;;;;;;;;;;;;4977149;28;19937;-85
2021/09/01 11:27:15;;;;;;;;;;;;;;;;;;4959150;28;19933;-85
2021/09/01 11:29:43;;;;;;;;;;;;;;;;;;4965793;28;19933;-84
2021/09/01 11:32:16;;;;;;;;;;;;;;;;;;4961560;28;19926;-86
2021/09/01 11:34:44;;;;;;;;;;;;;;;;;;4974640;28;19932;-85
2021/09/01 11:37:12;;;;;;;;;;;;;;;;;;4976208;28;19926;-86
2021/09/01 11:39:41;;;;;;;;;;;;;;;;;;4972260;28;19925;-85
2021/09/01 11:42:10;;;;;;;;;;;;;;;;;;4952343;28;19927;-85
2021/09/01 11:44:40;;;;;;;;;;;;;;;;;;4965671;28;19937;-86
2021/09/01 11:47:13;;;;;;;;;;;;;;;;;;4956171;28;19937;-84
2021/09/01 11:49:41;;;;;;;;;;;;;;;;;;4955701;28;19933;-86
2021/09/01 11:52:10;;;;;;;;;;;;;;;;;;4962232;28;19948;-85
2021/09/01 11:54:39;;;;;;;;;;;;;;;;;;4965668;28;19948;-86
2021/09/01 11:57:07;;;;;;;;;;;;;;;;;;4946264;28;19930;-86
2021/09/01 11:59:36;;;;;;;;;;;;;;;;;;4956431;28;19926;-86
2021/09/01 12:02:07;;;;;;;;;;;;;;;;;;4958415;28;19926;-86
2021/09/01 12:04:41;;;;;;;;;;;;;;;;;;4963463;28;19925;-86
2021/09/01 12:07:24;;;;;;;;;;;;;;;;;;4959010;28;20293;-86
2021/09/01 12:09:53;;;;;;;;;;;;;;;;;;4961162;28;19926;-86
2021/09/01 12:12:22;;;;;;;;;;;;;;;;;;4975944;28;19926;-85
2021/09/01 12:14:51;;;;;;;;;;;;;;;;;;4959095;28;19934;-86
2021/09/01 12:17:21;;;;;;;;;;;;;;;;;;4955199;28;19926;-86
2021/09/01 12:19:50;;;;;;;;;;;;;;;;;;4981714;28;20335;-86
2021/09/01 12:22:29;;;;;;;;;;;;;;;;;;4979058;28;19930;-86
2021/09/01 12:25:05;;;;;;;;;;;;;;;;;;4955526;28;19933;-86
2021/09/01 12:27:34;;;;;;;;;;;;;;;;;;4958991;28;19937;-86
2021/09/01 12:30:03;;;;;;;;;;;;;;;;;;4965333;28;19926;-86
2021/09/01 12:32:33;;;;;;;;;;;;;;;;;;4965574;28;19948;-86
2021/09/01 12:35:04;;;;;;;;;;;;;;;;;;4949792;28;20332;-86
2021/09/01 12:37:34;;;;;;;;;;;;;;;;;;4963104;28;19926;-86
2021/09/01 12:40:04;;;;;;;;;;;;;;;;;;4959693;28;19925;-85
2021/09/01 12:42:33;;;;;;;;;;;;;;;;;;4955165;28;19941;-86
2021/09/01 12:45:02;;;;;;;;;;;;;;;;;;4962494;28;19926;-85
2021/09/01 12:47:35;;;;;;;;;;;;;;;;;;4966710;28;20380;-86
2021/09/01 12:50:04;;;;;;;;;;;;;;;;;;4953633;28;19933;-86
2021/09/01 12:52:37;;;;;;;;;;;;;;;;;;4965610;28;20012;-86
2021/09/01 12:55:06;;;;;;;;;;;;;;;;;;4971828;28;19965;-86
2021/09/01 12:57:34;;;;;;;;;;;;;;;;;;4960263;28;19930;-86
2021/09/01 13:00:04;;;;;;;;;;;;;;;;;;4951739;28;19926;-86
2021/09/01 13:02:33;;;;;;;;;;;;;;;;;;4967725;28;19926;-86
2021/09/01 13:05:02;;;;;;;;;;;;;;;;;;4955486;28;19930;-86
2021/09/01 13:07:32;;;;;;;;;;;;;;;;;;4968772;28;20369;-86
2021/09/01 13:10:01;;;;;;;;;;;;;;;;;;4949865;28;19933;-86
2021/09/01 13:12:29;;;;;;;;;;;;;;;;;;4975084;28;19937;-86
2021/09/01 13:14:57;;;;;;;;;;;;;;;;;;4953484;28;19933;-87
2021/09/01 13:17:26;;;;;;;;;;;;;;;;;;4954248;28;20082;-87
2021/09/01 13:19:56;;;;;;;;;;;;;;;;;;4972569;28;20408;-85
2021/09/01 13:22:24;;;;;;;;;;;;;;;;;;4956898;28;20396;-87
2021/09/01 13:24:53;;;;;;;;;;;;;;;;;;4947619;28;19927;-86
2021/09/01 13:27:22;;;;;;;;;;;;;;;;;;4951728;28;19926;-87
2021/09/01 13:29:51;;;;;;;;;;;;;;;;;;4971570;28;19926;-86
2021/09/01 13:32:19;;;;;;;;;;;;;;;;;;4956308;28;19933;-86
2021/09/01 13:34:50;;;;;;;;;;;;;;;;;;4946748;28;20308;-86
2021/09/01 13:37:25;;;;;;;;;;;;;;;;;;4944828;28;19937;-86
2021/09/01 13:39:56;;;;;;;;;;;;;;;;;;4957286;28;19926;-86
2021/09/01 13:42:25;;;;;;;;;;;;;;;;;;4959323;28;19926;-86
2021/09/01 13:44:55;;;;;;;;;;;;;;;;;;4957505;28;19926;-86
2021/09/01 13:47:27;;;;;;;;;;;;;;;;;;4950263;28;19926;-86
2021/09/01 13:49:56;;;;;;;;;;;;;;;;;;4956323;28;19933;-86
2021/09/01 13:52:26;;;;;;;;;;;;;;;;;;4960967;28;19927;-86
2021/09/01 13:54:58;;;;;;;;;;;;;;;;;;4957753;28;19926;-87
2021/09/01 13:57:27;;;;;;;;;;;;;;;;;;4955764;28;19937;-87
2021/09/01 13:59:56;;;;;;;;;;;;;;;;;;4961070;28;19926;-86
2021/09/01 14:02:27;;;;;;;;;;;;;;;;;;4968526;28;20320;-86
2021/09/01 14:04:59;;;;;;;;;;;;;;;;;;4958104;28;20459;-86
2021/09/01 14:07:31;;;;;;;;;;;;;;;;;;4988668;28;19933;-86
2021/09/01 14:10:02;;;;;;;;;;;;;;;;;;4948905;28;19934;-86
2021/09/01 14:12:31;;;;;;;;;;;;;;;;;;4959541;28;19933;-86
2021/09/01 14:15:02;;;;;;;;;;;;;;;;;;4961334;28;19930;-87
2021/09/01 14:17:32;;;;;;;;;;;;;;;;;;4975328;28;19926;-86
2021/09/01 14:20:02;;;;;;;;;;;;;;;;;;4952506;28;19929;-87
2021/09/01 14:23:06;;;;;;;;;;;;;;;;;;;;;
2021/09/01 14:27:01;;;;;;;;;;;;;;;;;;4982119;28;19949;-84
2021/09/01 14:29:45;;;;;;;;;;;;;;;;;;4954300;28;19933;-87
2021/09/01 14:32:47;;;;;;;;;;;;;;;;;;4949680;28;19926;-87
2021/09/01 14:35:24;;;;;;;;;;;;;;;;;;4959547;28;19926;-87
2021/09/01 14:37:58;;;;;;;;;;;;;;;;;;4952368;28;19925;-88
2021/09/01 14:40:38;;;;;;;;;;;;;;;;;;4954278;28;19926;-87
2021/09/01 14:43:07;;;;;;;;;;;;;;;;;;4944788;28;19933;-87
2021/09/01 14:45:37;;;;;;;;;;;;;;;;;;4956112;28;19933;-87
2021/09/01 14:48:07;;;;;;;;;;;;;;;;;;4953432;28;19933;-88
2021/09/01 14:50:50;;;;;;;;;;;;;;;;;;4950020;28;19933;-87
2021/09/01 14:53:59;;;;;;;;;;;;;;;;;;4958124;28;19926;-87
2021/09/01 14:56:30;;;;;;;;;;;;;;;;;;4949200;28;20401;-87
2021/09/01 14:59:01;;;;;;;;;;;;;;;;;;4955677;28;19929;-87
2021/09/01 15:01:35;;;;;;;;;;;;;;;;;;4957490;28;19927;-87
2021/09/01 15:04:14;;;;;;;;;;;;;;;;;;4956837;28;19926;-87
2021/09/01 15:06:42;;;;;;;;;;;;;;;;;;4992019;28;19929;-87
2021/09/01 15:09:13;;;;;;;;;;;;;;;;;;4958844;28;19926;-87
2021/09/01 15:11:44;;;;;;;;;;;;;;;;;;4954217;28;19925;-87
2021/09/01 15:14:46;;;;;;;;;;;;;;;;;;4958193;28;19933;-87
2021/09/01 15:33:56;;;;;;;;;;;;;;;;;;4887308;29;20202;-86
2021/09/01 15:36:38;;;;;;;;;;;;;;;;;;4878427;29;19935;-87
2021/09/01 15:39:44;;;;;;;;;;;;;;;;;;4875791;29;19938;-86
2021/09/01 15:42:28;;;;;;;;;;;;;;;;;;4885946;29;19935;-87
2021/09/01 15:45:47;;;;;;;;;;;;;;;;;;4893218;29;19938;-86
2021/09/01 15:53:16;;;;;;;;;;;;;;;;;;;;;
2021/09/01 16:00:39;;;;;;;;;;;;;;;;;;4882137;29;19927;-88
2021/09/01 16:03:18;;;;;;;;;;;;;;;;;;4935052;28;20308;-88
2021/09/01 16:05:55;;;;;;;;;;;;;;;;;;4950811;28;20379;-87
2021/09/01 16:08:40;;;;;;;;;;;;;;;;;;4954969;28;20418;-87
2021/09/01 16:11:33;;;;;;;;;;;;;;;;;;4957650;28;19926;-88
2021/09/01 16:14:06;;;;;;;;;;;;;;;;;;4957742;28;19933;-89
2021/09/01 16:16:46;;;;;;;;;;;;;;;;;;4955236;28;19930;-88
2021/09/01 16:19:48;;;;;;;;;;;;;;;;;;4968875;28;19933;-88
2021/09/01 16:22:21;;;;;;;;;;;;;;;;;;4949766;28;19926;-88
2021/09/01 16:24:52;;;;;;;;;;;;;;;;;;4954553;28;19926;-89
2021/09/01 16:27:21;;;;;;;;;;;;;;;;;;4957371;28;19930;-87
2021/09/01 16:29:51;;;;;;;;;;;;;;;;;;4953173;28;20300;-85
2021/09/01 16:32:22;;;;;;;;;;;;;;;;;;4956312;28;20307;-88
2021/09/01 16:34:51;;;;;;;;;;;;;;;;;;4952632;28;20383;-88
2021/09/01 16:37:21;;;;;;;;;;;;;;;;;;4947667;28;20307;-87
2021/09/01 16:39:50;;;;;;;;;;;;;;;;;;4949264;28;20304;-87
2021/09/01 16:42:24;;;;;;;;;;;;;;;;;;4955403;28;19933;-89
2021/09/01 16:44:54;;;;;;;;;;;;;;;;;;4957218;28;19926;-86
2021/09/01 16:47:23;;;;;;;;;;;;;;;;;;4950667;28;19930;-89
2021/09/01 16:49:53;;;;;;;;;;;;;;;;;;4954820;28;20316;-89
2021/09/01 16:52:23;;;;;;;;;;;;;;;;;;4954479;28;19940;-89
2021/09/01 16:54:56;;;;;;;;;;;;;;;;;;4956245;28;19934;-89
2021/09/01 16:57:30;;;;;;;;;;;;;;;;;;4964524;28;19927;-89
2021/09/01 17:00:03;;;;;;;;;;;;;;;;;;4950355;28;19930;-88
2021/09/01 17:02:33;;;;;;;;;;;;;;;;;;4960967;28;19926;-87
2021/09/01 17:05:03;;;;;;;;;;;;;;;;;;4957889;28;20099;-89
2021/09/01 17:07:36;;;;;;;;;;;;;;;;;;4955216;28;19930;-89
2021/09/01 17:10:10;;;;;;;;;;;;;;;;;;4954340;28;19926;-88
2021/09/01 17:12:51;;;;;;;;;;;;;;;;;;4961134;28;19932;-90
2021/09/01 17:15:46;;;;;;;;;;;;;;;;;;4988214;28;19932;-89
2021/09/01 17:21:41;;;;;;;;;;;;;;;;;;4953893;28;20308;-89
2021/09/01 17:24:16;;;;;;;;;;;;;;;;;;4972272;28;19926;-89
2021/09/01 17:27:03;;;;;;;;;;;;;;;;;;4977453;28;19926;-89
2021/09/01 17:30:08;;;;;;;;;;;;;;;;;;4964714;28;19926;-90
2021/09/01 17:32:47;;;;;;;;;;;;;;;;;;4952665;28;19933;-90
2021/09/01 17:35:17;;;;;;;;;;;;;;;;;;4952352;28;19956;-90
2021/09/01 17:37:54;;;;;;;;;;;;;;;;;;4950879;28;20319;-91
2021/09/01 17:40:26;;;;;;;;;;;;;;;;;;4955661;28;19936;-89
2021/09/01 17:42:57;;;;;;;;;;;;;;;;;;4966560;28;19930;-90
2021/09/01 17:45:34;;;;;;;;;;;;;;;;;;4962810;28;20423;-90
2021/09/01 17:48:13;;;;;;;;;;;;;;;;;;4957831;28;19933;-90
2021/09/01 17:51:13;;;;;;;;;;;;;;;;;;4944880;28;19926;-90
2021/09/01 17:53:48;;;;;;;;;;;;;;;;;;4959409;28;20344;-89
2021/09/01 17:56:21;;;;;;;;;;;;;;;;;;4952807;28;19927;-90
2021/09/01 18:06:22;;;;;;;;;;;;;;;;;;4940191;28;19937;-89
2021/09/01 18:09:01;;;;;;;;;;;;;;;;;;4948649;28;19925;-90
2021/09/01 18:11:58;;;;;;;;;;;;;;;;;;4947183;28;19930;-90
2021/09/01 18:18:43;;;;;;;;;;;;;;;;;;4934932;28;20295;-90
2021/09/01 18:21:21;;;;;;;;;;;;;;;;;;4938600;28;20312;-91
2021/09/01 18:31:21;;;;;;;;;;;;;;;;;;4941700;28;19925;-90
2021/09/01 18:34:19;;;;;;;;;;;;;;;;;;4949619;28;19930;-90
2021/09/01 18:36:57;;;;;;;;;;;;;;;;;;4947659;28;20014;-90
2021/09/01 18:42:52;;;;;;;;;;;;;;;;;;4936835;28;19930;-90
2021/09/01 18:45:32;;;;;;;;;;;;;;;;;;4955822;28;19930;-90
2021/09/01 18:51:19;;;;;;;;;;;;;;;;;;4955357;28;20342;-90
2021/09/01 18:54:02;;;;;;;;;;;;;;;;;;4958381;28;19926;-89
2021/09/01 18:57:29;;;;;;;;;;;;;;;;;;4959776;28;19926;-91
2021/09/01 19:00:22;;;;;;;;;;;;;;;;;;4947740;28;19926;-91
2021/09/01 19:03:04;;;;;;;;;;;;;;;;;;4946512;28;19937;-91
2021/09/01 19:05:42;;;;;;;;;;;;;;;;;;4961537;28;19926;-90
2021/09/01 19:08:25;;;;;;;;;;;;;;;;;;4947228;28;19960;-89
2021/09/01 19:11:12;;;;;;;;;;;;;;;;;;4964571;28;19926;-90
2021/09/01 19:13:40;;;;;;;;;;;;;;;;;;4951063;28;19926;-89
2021/09/01 19:16:10;;;;;;;;;;;;;;;;;;4938873;28;20420;-88
2021/09/01 19:18:40;;;;;;;;;;;;;;;;;;4944233;28;19926;-90
2021/09/01 19:21:10;;;;;;;;;;;;;;;;;;4940557;28;20308;-89
2021/09/01 19:23:39;;;;;;;;;;;;;;;;;;4961202;28;19940;-91
2021/09/01 19:26:09;;;;;;;;;;;;;;;;;;4946304;28;19930;-90
2021/09/01 19:28:39;;;;;;;;;;;;;;;;;;4948235;28;20935;-88
2021/09/01 19:31:08;;;;;;;;;;;;;;;;;;4942394;28;20296;-89
2021/09/01 19:33:37;;;;;;;;;;;;;;;;;;4941790;28;19926;-90
2021/09/01 19:36:05;;;;;;;;;;;;;;;;;;4949864;28;20384;-90
2021/09/01 19:38:35;;;;;;;;;;;;;;;;;;4939311;28;19926;-90
2021/09/01 19:41:05;;;;;;;;;;;;;;;;;;4957232;28;19933;-90
2021/09/01 19:43:37;;;;;;;;;;;;;;;;;;4943000;28;19926;-89